sensor_id;sensor_type;location;lat;lon;timestamp;P1;durP1;ratioP1;P2;durP2;ratioP2
24587;SDS011;12744;52.270;9.746;2022-08-21T00:01:18;7.93;;;4.57;;
24587;SDS011;12744;52.270;9.746;2022-08-21T00:03:51;6.80;;;4.47;;
24587;SDS011;12744;52.270;9.746;2022-08-21T00:06:22;6.05;;;3.70;;
24587;SDS011;12744;52.270;9.746;2022-08-21T00:08:54;7.97;;;4.65;;
24587;SDS011;12744;52.270;9.746;2022-08-21T00:11:25;6.88;;;3.83;;
24587;SDS011;12744;52.270;9.746;2022-08-21T00:13:57;7.47;;;4.18;;
24587;SDS011;12744;52.270;9.746;2022-08-21T00:16:29;6.65;;;4.10;;
24587;SDS011;12744;52.270;9.746;2022-08-21T00:19:00;10.48;;;4.70;;
24587;SDS011;12744;52.270;9.746;2022-08-21T00:21:32;7.40;;;3.85;;
24587;SDS011;12744;52.270;9.746;2022-08-21T00:24:05;6.57;;;3.42;;
24587;SDS011;12744;52.270;9.746;2022-08-21T00:26:36;6.68;;;3.80;;
24587;SDS011;12744;52.270;9.746;2022-08-21T00:29:07;6.93;;;3.58;;
24587;SDS011;12744;52.270;9.746;2022-08-21T00:31:38;10.50;;;3.83;;
24587;SDS011;12744;52.270;9.746;2022-08-21T00:34:09;7.35;;;3.63;;
24587;SDS011;12744;52.270;9.746;2022-08-21T00:36:41;6.80;;;3.53;;
24587;SDS011;12744;52.270;9.746;2022-08-21T00:39:12;8.52;;;3.53;;
24587;SDS011;12744;52.270;9.746;2022-08-21T00:41:43;4.57;;;2.70;;
24587;SDS011;12744;52.270;9.746;2022-08-21T00:44:15;5.70;;;3.25;;
24587;SDS011;12744;52.270;9.746;2022-08-21T00:46:46;5.97;;;4.13;;
24587;SDS011;12744;52.270;9.746;2022-08-21T00:49:17;4.93;;;3.10;;
24587;SDS011;12744;52.270;9.746;2022-08-21T00:51:50;5.35;;;3.55;;
24587;SDS011;12744;52.270;9.746;2022-08-21T00:54:24;6.30;;;3.33;;
24587;SDS011;12744;52.270;9.746;2022-08-21T00:57:02;6.28;;;3.75;;
24587;SDS011;12744;52.270;9.746;2022-08-21T00:59:37;6.00;;;3.20;;
24587;SDS011;12744;52.270;9.746;2022-08-21T01:02:10;5.65;;;3.60;;
24587;SDS011;12744;52.270;9.746;2022-08-21T01:04:42;8.48;;;3.83;;
24587;SDS011;12744;52.270;9.746;2022-08-21T01:07:13;5.85;;;3.72;;
24587;SDS011;12744;52.270;9.746;2022-08-21T01:09:45;6.80;;;3.63;;
24587;SDS011;12744;52.270;9.746;2022-08-21T01:12:18;8.77;;;3.38;;
24587;SDS011;12744;52.270;9.746;2022-08-21T01:14:49;4.20;;;2.80;;
24587;SDS011;12744;52.270;9.746;2022-08-21T01:17:20;7.70;;;3.35;;
24587;SDS011;12744;52.270;9.746;2022-08-21T01:19:52;8.15;;;3.65;;
24587;SDS011;12744;52.270;9.746;2022-08-21T01:22:24;9.13;;;3.70;;
24587;SDS011;12744;52.270;9.746;2022-08-21T01:24:55;9.95;;;4.10;;
24587;SDS011;12744;52.270;9.746;2022-08-21T01:27:26;8.50;;;3.58;;
24587;SDS011;12744;52.270;9.746;2022-08-21T01:29:59;8.27;;;3.22;;
24587;SDS011;12744;52.270;9.746;2022-08-21T01:32:38;6.85;;;3.50;;
24587;SDS011;12744;52.270;9.746;2022-08-21T01:35:10;8.85;;;3.20;;
24587;SDS011;12744;52.270;9.746;2022-08-21T01:37:44;5.55;;;2.83;;
24587;SDS011;12744;52.270;9.746;2022-08-21T01:40:16;6.88;;;4.03;;
24587;SDS011;12744;52.270;9.746;2022-08-21T01:42:48;9.63;;;3.90;;
24587;SDS011;12744;52.270;9.746;2022-08-21T01:45:19;6.38;;;3.30;;
24587;SDS011;12744;52.270;9.746;2022-08-21T01:47:50;7.90;;;3.08;;
24587;SDS011;12744;52.270;9.746;2022-08-21T01:50:22;7.43;;;3.28;;
24587;SDS011;12744;52.270;9.746;2022-08-21T01:52:53;9.02;;;4.10;;
24587;SDS011;12744;52.270;9.746;2022-08-21T01:55:25;7.20;;;3.10;;
24587;SDS011;12744;52.270;9.746;2022-08-21T01:57:56;6.28;;;2.90;;
24587;SDS011;12744;52.270;9.746;2022-08-21T02:00:29;4.82;;;3.00;;
24587;SDS011;12744;52.270;9.746;2022-08-21T02:03:00;6.18;;;3.08;;
24587;SDS011;12744;52.270;9.746;2022-08-21T02:05:31;6.32;;;2.88;;
24587;SDS011;12744;52.270;9.746;2022-08-21T02:08:02;6.47;;;3.08;;
24587;SDS011;12744;52.270;9.746;2022-08-21T02:10:34;8.93;;;3.35;;
24587;SDS011;12744;52.270;9.746;2022-08-21T02:13:05;8.45;;;3.70;;
24587;SDS011;12744;52.270;9.746;2022-08-21T02:15:37;9.07;;;3.58;;
24587;SDS011;12744;52.270;9.746;2022-08-21T02:18:08;7.28;;;3.50;;
24587;SDS011;12744;52.270;9.746;2022-08-21T02:20:41;6.32;;;2.75;;
24587;SDS011;12744;52.270;9.746;2022-08-21T02:23:15;6.65;;;3.63;;
24587;SDS011;12744;52.270;9.746;2022-08-21T02:25:46;5.43;;;3.38;;
24587;SDS011;12744;52.270;9.746;2022-08-21T02:28:17;5.88;;;3.17;;
24587;SDS011;12744;52.270;9.746;2022-08-21T02:30:49;2.88;;;2.58;;
24587;SDS011;12744;52.270;9.746;2022-08-21T02:33:21;6.73;;;3.07;;
24587;SDS011;12744;52.270;9.746;2022-08-21T02:35:53;9.13;;;3.58;;
24587;SDS011;12744;52.270;9.746;2022-08-21T02:38:26;6.70;;;3.65;;
24587;SDS011;12744;52.270;9.746;2022-08-21T02:41:00;8.57;;;3.92;;
24587;SDS011;12744;52.270;9.746;2022-08-21T02:43:31;7.97;;;3.78;;
24587;SDS011;12744;52.270;9.746;2022-08-21T02:46:03;6.45;;;3.67;;
24587;SDS011;12744;52.270;9.746;2022-08-21T02:48:35;8.43;;;3.60;;
24587;SDS011;12744;52.270;9.746;2022-08-21T02:51:09;6.10;;;3.08;;
24587;SDS011;12744;52.270;9.746;2022-08-21T02:53:42;5.35;;;2.90;;
24587;SDS011;12744;52.270;9.746;2022-08-21T02:56:16;36.28;;;3.78;;
24587;SDS011;12744;52.270;9.746;2022-08-21T02:58:49;9.82;;;3.72;;
24587;SDS011;12744;52.270;9.746;2022-08-21T03:01:22;5.63;;;2.80;;
24587;SDS011;12744;52.270;9.746;2022-08-21T03:03:53;10.90;;;3.60;;
24587;SDS011;12744;52.270;9.746;2022-08-21T03:06:24;7.03;;;3.63;;
24587;SDS011;12744;52.270;9.746;2022-08-21T03:08:55;6.72;;;3.60;;
24587;SDS011;12744;52.270;9.746;2022-08-21T03:11:28;8.60;;;4.15;;
24587;SDS011;12744;52.270;9.746;2022-08-21T03:13:59;11.60;;;4.28;;
24587;SDS011;12744;52.270;9.746;2022-08-21T03:16:30;6.47;;;3.90;;
24587;SDS011;12744;52.270;9.746;2022-08-21T03:19:01;8.88;;;4.00;;
24587;SDS011;12744;52.270;9.746;2022-08-21T03:21:32;9.15;;;4.03;;
24587;SDS011;12744;52.270;9.746;2022-08-21T03:24:04;10.52;;;4.07;;
24587;SDS011;12744;52.270;9.746;2022-08-21T03:26:35;9.90;;;4.10;;
24587;SDS011;12744;52.270;9.746;2022-08-21T03:29:06;8.02;;;3.60;;
24587;SDS011;12744;52.270;9.746;2022-08-21T03:31:38;7.03;;;3.15;;
24587;SDS011;12744;52.270;9.746;2022-08-21T03:34:09;4.70;;;3.22;;
24587;SDS011;12744;52.270;9.746;2022-08-21T03:36:41;13.18;;;3.65;;
24587;SDS011;12744;52.270;9.746;2022-08-21T03:39:12;4.20;;;2.65;;
24587;SDS011;12744;52.270;9.746;2022-08-21T03:41:43;9.70;;;3.70;;
24587;SDS011;12744;52.270;9.746;2022-08-21T03:44:14;6.13;;;4.07;;
24587;SDS011;12744;52.270;9.746;2022-08-21T03:46:45;8.90;;;4.10;;
24587;SDS011;12744;52.270;9.746;2022-08-21T03:49:16;10.95;;;3.72;;
24587;SDS011;12744;52.270;9.746;2022-08-21T03:51:47;5.72;;;3.00;;
24587;SDS011;12744;52.270;9.746;2022-08-21T03:54:18;7.43;;;2.83;;
24587;SDS011;12744;52.270;9.746;2022-08-21T03:56:49;8.80;;;3.47;;
24587;SDS011;12744;52.270;9.746;2022-08-21T03:59:20;8.85;;;2.88;;
24587;SDS011;12744;52.270;9.746;2022-08-21T04:01:52;7.78;;;2.95;;
24587;SDS011;12744;52.270;9.746;2022-08-21T04:04:23;6.70;;;3.25;;
24587;SDS011;12744;52.270;9.746;2022-08-21T04:06:56;5.70;;;2.75;;
24587;SDS011;12744;52.270;9.746;2022-08-21T04:09:28;7.13;;;3.42;;
24587;SDS011;12744;52.270;9.746;2022-08-21T04:12:00;10.00;;;3.40;;
24587;SDS011;12744;52.270;9.746;2022-08-21T04:14:31;7.43;;;4.20;;
24587;SDS011;12744;52.270;9.746;2022-08-21T04:17:03;5.15;;;3.25;;
24587;SDS011;12744;52.270;9.746;2022-08-21T04:19:34;7.45;;;3.45;;
24587;SDS011;12744;52.270;9.746;2022-08-21T04:22:05;6.07;;;3.30;;
24587;SDS011;12744;52.270;9.746;2022-08-21T04:24:36;5.80;;;3.33;;
24587;SDS011;12744;52.270;9.746;2022-08-21T04:27:07;7.40;;;3.28;;
24587;SDS011;12744;52.270;9.746;2022-08-21T04:29:38;6.40;;;3.03;;
24587;SDS011;12744;52.270;9.746;2022-08-21T04:32:09;7.35;;;3.63;;
24587;SDS011;12744;52.270;9.746;2022-08-21T04:34:40;10.40;;;3.42;;
24587;SDS011;12744;52.270;9.746;2022-08-21T04:37:11;8.00;;;3.35;;
24587;SDS011;12744;52.270;9.746;2022-08-21T04:39:42;9.55;;;3.90;;
24587;SDS011;12744;52.270;9.746;2022-08-21T04:42:13;8.65;;;3.25;;
24587;SDS011;12744;52.270;9.746;2022-08-21T04:44:44;8.02;;;3.10;;
24587;SDS011;12744;52.270;9.746;2022-08-21T04:47:18;7.05;;;3.03;;
24587;SDS011;12744;52.270;9.746;2022-08-21T04:49:49;9.73;;;3.33;;
24587;SDS011;12744;52.270;9.746;2022-08-21T04:52:21;15.50;;;4.35;;
24587;SDS011;12744;52.270;9.746;2022-08-21T04:54:54;6.63;;;2.80;;
24587;SDS011;12744;52.270;9.746;2022-08-21T04:57:25;5.20;;;2.72;;
24587;SDS011;12744;52.270;9.746;2022-08-21T04:59:56;5.90;;;3.00;;
24587;SDS011;12744;52.270;9.746;2022-08-21T05:02:28;5.45;;;2.60;;
24587;SDS011;12744;52.270;9.746;2022-08-21T05:04:59;6.57;;;3.15;;
24587;SDS011;12744;52.270;9.746;2022-08-21T05:07:30;11.45;;;3.60;;
24587;SDS011;12744;52.270;9.746;2022-08-21T05:10:02;8.52;;;2.83;;
24587;SDS011;12744;52.270;9.746;2022-08-21T05:12:34;9.27;;;2.97;;
24587;SDS011;12744;52.270;9.746;2022-08-21T05:15:05;11.15;;;3.50;;
24587;SDS011;12744;52.270;9.746;2022-08-21T05:17:36;6.55;;;2.70;;
24587;SDS011;12744;52.270;9.746;2022-08-21T05:20:09;7.50;;;3.03;;
24587;SDS011;12744;52.270;9.746;2022-08-21T05:22:41;4.57;;;2.67;;
24587;SDS011;12744;52.270;9.746;2022-08-21T05:25:13;5.95;;;2.58;;
24587;SDS011;12744;52.270;9.746;2022-08-21T05:27:44;5.75;;;2.33;;
24587;SDS011;12744;52.270;9.746;2022-08-21T05:30:15;4.53;;;3.03;;
24587;SDS011;12744;52.270;9.746;2022-08-21T05:32:46;3.05;;;2.40;;
24587;SDS011;12744;52.270;9.746;2022-08-21T05:35:18;11.55;;;3.03;;
24587;SDS011;12744;52.270;9.746;2022-08-21T05:37:49;7.95;;;2.83;;
24587;SDS011;12744;52.270;9.746;2022-08-21T05:40:20;6.70;;;3.15;;
24587;SDS011;12744;52.270;9.746;2022-08-21T05:42:52;7.72;;;2.65;;
24587;SDS011;12744;52.270;9.746;2022-08-21T05:45:26;5.82;;;2.35;;
24587;SDS011;12744;52.270;9.746;2022-08-21T05:48:08;8.50;;;2.65;;
24587;SDS011;12744;52.270;9.746;2022-08-21T05:50:45;9.70;;;3.08;;
24587;SDS011;12744;52.270;9.746;2022-08-21T05:53:18;6.72;;;2.50;;
24587;SDS011;12744;52.270;9.746;2022-08-21T05:58:22;6.85;;;2.70;;
24587;SDS011;12744;52.270;9.746;2022-08-21T06:00:56;5.20;;;2.60;;
24587;SDS011;12744;52.270;9.746;2022-08-21T06:03:30;5.10;;;2.70;;
24587;SDS011;12744;52.270;9.746;2022-08-21T06:06:03;5.18;;;2.55;;
24587;SDS011;12744;52.270;9.746;2022-08-21T06:08:34;7.50;;;2.70;;
24587;SDS011;12744;52.270;9.746;2022-08-21T06:11:05;7.35;;;2.85;;
24587;SDS011;12744;52.270;9.746;2022-08-21T06:13:36;8.35;;;3.47;;
24587;SDS011;12744;52.270;9.746;2022-08-21T06:16:14;7.85;;;3.33;;
24587;SDS011;12744;52.270;9.746;2022-08-21T06:18:46;3.53;;;2.72;;
24587;SDS011;12744;52.270;9.746;2022-08-21T06:21:17;7.78;;;2.60;;
24587;SDS011;12744;52.270;9.746;2022-08-21T06:23:49;7.15;;;3.10;;
24587;SDS011;12744;52.270;9.746;2022-08-21T06:26:20;7.38;;;2.88;;
24587;SDS011;12744;52.270;9.746;2022-08-21T06:28:52;7.45;;;3.03;;
24587;SDS011;12744;52.270;9.746;2022-08-21T06:31:24;8.88;;;2.88;;
24587;SDS011;12744;52.270;9.746;2022-08-21T06:33:57;8.27;;;3.20;;
24587;SDS011;12744;52.270;9.746;2022-08-21T06:36:28;4.45;;;2.92;;
24587;SDS011;12744;52.270;9.746;2022-08-21T06:38:59;8.93;;;2.30;;
24587;SDS011;12744;52.270;9.746;2022-08-21T06:41:32;9.43;;;2.92;;
24587;SDS011;12744;52.270;9.746;2022-08-21T06:44:03;4.40;;;2.70;;
24587;SDS011;12744;52.270;9.746;2022-08-21T06:46:34;4.03;;;2.45;;
24587;SDS011;12744;52.270;9.746;2022-08-21T06:49:05;7.13;;;3.10;;
24587;SDS011;12744;52.270;9.746;2022-08-21T06:51:36;6.32;;;3.10;;
24587;SDS011;12744;52.270;9.746;2022-08-21T06:54:07;6.22;;;3.22;;
24587;SDS011;12744;52.270;9.746;2022-08-21T06:56:39;5.10;;;2.78;;
24587;SDS011;12744;52.270;9.746;2022-08-21T06:59:10;6.35;;;3.03;;
24587;SDS011;12744;52.270;9.746;2022-08-21T07:01:41;9.02;;;3.80;;
24587;SDS011;12744;52.270;9.746;2022-08-21T07:04:12;7.68;;;3.38;;
24587;SDS011;12744;52.270;9.746;2022-08-21T07:06:43;6.10;;;3.08;;
24587;SDS011;12744;52.270;9.746;2022-08-21T07:09:14;5.10;;;2.60;;
24587;SDS011;12744;52.270;9.746;2022-08-21T07:11:46;4.85;;;3.00;;
24587;SDS011;12744;52.270;9.746;2022-08-21T07:14:21;7.68;;;3.53;;
24587;SDS011;12744;52.270;9.746;2022-08-21T07:16:53;8.13;;;3.60;;
24587;SDS011;12744;52.270;9.746;2022-08-21T07:19:24;6.43;;;3.60;;
24587;SDS011;12744;52.270;9.746;2022-08-21T07:21:57;10.20;;;3.80;;
24587;SDS011;12744;52.270;9.746;2022-08-21T07:24:30;9.07;;;3.53;;
24587;SDS011;12744;52.270;9.746;2022-08-21T07:27:01;5.55;;;3.45;;
24587;SDS011;12744;52.270;9.746;2022-08-21T07:29:32;4.38;;;2.78;;
24587;SDS011;12744;52.270;9.746;2022-08-21T07:32:04;8.20;;;2.90;;
24587;SDS011;12744;52.270;9.746;2022-08-21T07:34:35;14.25;;;3.47;;
24587;SDS011;12744;52.270;9.746;2022-08-21T07:37:06;9.32;;;3.30;;
24587;SDS011;12744;52.270;9.746;2022-08-21T07:39:37;7.55;;;3.17;;
24587;SDS011;12744;52.270;9.746;2022-08-21T07:42:08;5.88;;;2.80;;
24587;SDS011;12744;52.270;9.746;2022-08-21T07:44:40;8.52;;;2.75;;
24587;SDS011;12744;52.270;9.746;2022-08-21T07:47:11;5.95;;;2.40;;
24587;SDS011;12744;52.270;9.746;2022-08-21T07:49:42;9.63;;;2.70;;
24587;SDS011;12744;52.270;9.746;2022-08-21T07:52:13;4.90;;;2.35;;
24587;SDS011;12744;52.270;9.746;2022-08-21T07:54:44;8.77;;;2.40;;
24587;SDS011;12744;52.270;9.746;2022-08-21T07:57:15;9.00;;;3.42;;
24587;SDS011;12744;52.270;9.746;2022-08-21T07:59:46;4.55;;;2.20;;
24587;SDS011;12744;52.270;9.746;2022-08-21T08:02:21;10.30;;;2.60;;
24587;SDS011;12744;52.270;9.746;2022-08-21T08:04:54;10.40;;;2.72;;
24587;SDS011;12744;52.270;9.746;2022-08-21T08:07:28;7.65;;;2.33;;
24587;SDS011;12744;52.270;9.746;2022-08-21T08:09:59;14.20;;;2.63;;
24587;SDS011;12744;52.270;9.746;2022-08-21T08:12:31;7.95;;;2.30;;
24587;SDS011;12744;52.270;9.746;2022-08-21T08:15:02;8.82;;;2.85;;
24587;SDS011;12744;52.270;9.746;2022-08-21T08:17:35;6.63;;;2.42;;
24587;SDS011;12744;52.270;9.746;2022-08-21T08:20:08;7.07;;;2.25;;
24587;SDS011;12744;52.270;9.746;2022-08-21T08:22:41;19.92;;;3.20;;
24587;SDS011;12744;52.270;9.746;2022-08-21T08:25:13;6.57;;;2.57;;
24587;SDS011;12744;52.270;9.746;2022-08-21T08:27:45;6.75;;;2.80;;
24587;SDS011;12744;52.270;9.746;2022-08-21T08:30:17;9.77;;;2.75;;
24587;SDS011;12744;52.270;9.746;2022-08-21T08:32:50;5.53;;;2.13;;
24587;SDS011;12744;52.270;9.746;2022-08-21T08:35:21;6.65;;;2.67;;
24587;SDS011;12744;52.270;9.746;2022-08-21T08:37:52;7.65;;;2.38;;
24587;SDS011;12744;52.270;9.746;2022-08-21T08:40:35;6.45;;;2.50;;
24587;SDS011;12744;52.270;9.746;2022-08-21T08:43:14;7.97;;;2.67;;
24587;SDS011;12744;52.270;9.746;2022-08-21T08:45:47;5.57;;;2.42;;
24587;SDS011;12744;52.270;9.746;2022-08-21T08:51:25;11.85;;;3.03;;
24587;SDS011;12744;52.270;9.746;2022-08-21T08:54:01;5.70;;;2.45;;
24587;SDS011;12744;52.270;9.746;2022-08-21T08:56:35;7.97;;;2.63;;
24587;SDS011;12744;52.270;9.746;2022-08-21T08:59:08;4.68;;;2.22;;
24587;SDS011;12744;52.270;9.746;2022-08-21T09:01:45;5.57;;;2.35;;
24587;SDS011;12744;52.270;9.746;2022-08-21T09:04:19;7.85;;;2.72;;
24587;SDS011;12744;52.270;9.746;2022-08-21T09:15:31;5.60;;;2.30;;
24587;SDS011;12744;52.270;9.746;2022-08-21T09:26:45;8.73;;;2.10;;
24587;SDS011;12744;52.270;9.746;2022-08-21T09:29:22;6.65;;;2.70;;
24587;SDS011;12744;52.270;9.746;2022-08-21T09:32:00;7.18;;;2.28;;
24587;SDS011;12744;52.270;9.746;2022-08-21T09:34:31;2.78;;;2.03;;
24587;SDS011;12744;52.270;9.746;2022-08-21T09:37:02;6.63;;;2.15;;
24587;SDS011;12744;52.270;9.746;2022-08-21T09:39:39;4.68;;;2.55;;
24587;SDS011;12744;52.270;9.746;2022-08-21T09:42:10;11.70;;;2.78;;
24587;SDS011;12744;52.270;9.746;2022-08-21T09:45:04;11.02;;;2.58;;
24587;SDS011;12744;52.270;9.746;2022-08-21T09:47:39;6.47;;;2.35;;
24587;SDS011;12744;52.270;9.746;2022-08-21T09:50:19;5.97;;;2.30;;
24587;SDS011;12744;52.270;9.746;2022-08-21T09:52:56;7.55;;;2.17;;
24587;SDS011;12744;52.270;9.746;2022-08-21T09:55:34;5.25;;;2.05;;
24587;SDS011;12744;52.270;9.746;2022-08-21T09:58:32;5.45;;;2.40;;
24587;SDS011;12744;52.270;9.746;2022-08-21T10:01:05;9.25;;;2.80;;
24587;SDS011;12744;52.270;9.746;2022-08-21T10:03:37;6.95;;;2.10;;
24587;SDS011;12744;52.270;9.746;2022-08-21T10:06:09;7.72;;;2.40;;
24587;SDS011;12744;52.270;9.746;2022-08-21T10:08:41;5.28;;;2.33;;
24587;SDS011;12744;52.270;9.746;2022-08-21T10:11:13;3.80;;;1.90;;
24587;SDS011;12744;52.270;9.746;2022-08-21T10:28:00;7.90;;;2.95;;
24587;SDS011;12744;52.270;9.746;2022-08-21T10:30:56;4.90;;;2.28;;
24587;SDS011;12744;52.270;9.746;2022-08-21T10:33:39;6.10;;;2.15;;
24587;SDS011;12744;52.270;9.746;2022-08-21T10:36:19;4.97;;;2.30;;
24587;SDS011;12744;52.270;9.746;2022-08-21T10:41:53;5.10;;;2.22;;
24587;SDS011;12744;52.270;9.746;2022-08-21T10:47:47;7.45;;;2.42;;
24587;SDS011;12744;52.270;9.746;2022-08-21T10:55:27;6.72;;;1.88;;
24587;SDS011;12744;52.270;9.746;2022-08-21T10:58:14;11.40;;;2.85;;
24587;SDS011;12744;52.270;9.746;2022-08-21T11:00:50;4.07;;;1.90;;
24587;SDS011;12744;52.270;9.746;2022-08-21T11:03:33;3.60;;;1.80;;
24587;SDS011;12744;52.270;9.746;2022-08-21T11:06:08;7.38;;;2.30;;
24587;SDS011;12744;52.270;9.746;2022-08-21T11:08:49;4.07;;;2.45;;
24587;SDS011;12744;52.270;9.746;2022-08-21T11:17:15;6.00;;;2.17;;
24587;SDS011;12744;52.270;9.746;2022-08-21T11:22:50;5.13;;;2.22;;
24587;SDS011;12744;52.270;9.746;2022-08-21T11:25:29;4.25;;;1.70;;
24587;SDS011;12744;52.270;9.746;2022-08-21T11:28:13;7.50;;;2.00;;
24587;SDS011;12744;52.270;9.746;2022-08-21T11:31:12;4.43;;;2.03;;
24587;SDS011;12744;52.270;9.746;2022-08-21T11:37:07;7.40;;;2.17;;
24587;SDS011;12744;52.270;9.746;2022-08-21T11:43:12;10.57;;;2.20;;
24587;SDS011;12744;52.270;9.746;2022-08-21T11:45:55;6.07;;;2.15;;
24587;SDS011;12744;52.270;9.746;2022-08-21T11:51:21;5.85;;;1.90;;
24587;SDS011;12744;52.270;9.746;2022-08-21T11:56:45;3.03;;;1.77;;
24587;SDS011;12744;52.270;9.746;2022-08-21T11:59:23;6.40;;;2.30;;
24587;SDS011;12744;52.270;9.746;2022-08-21T12:02:15;5.68;;;2.20;;
24587;SDS011;12744;52.270;9.746;2022-08-21T12:04:59;5.07;;;2.22;;
24587;SDS011;12744;52.270;9.746;2022-08-21T12:07:35;3.28;;;1.80;;
24587;SDS011;12744;52.270;9.746;2022-08-21T12:10:18;4.80;;;2.00;;
24587;SDS011;12744;52.270;9.746;2022-08-21T12:12:52;4.70;;;1.77;;
24587;SDS011;12744;52.270;9.746;2022-08-21T12:15:27;4.90;;;1.67;;
24587;SDS011;12744;52.270;9.746;2022-08-21T12:18:01;3.35;;;1.83;;
24587;SDS011;12744;52.270;9.746;2022-08-21T12:23:59;5.68;;;2.03;;
24587;SDS011;12744;52.270;9.746;2022-08-21T12:29:59;3.38;;;1.90;;
24587;SDS011;12744;52.270;9.746;2022-08-21T12:33:00;3.65;;;1.90;;
24587;SDS011;12744;52.270;9.746;2022-08-21T12:35:37;4.70;;;2.40;;
24587;SDS011;12744;52.270;9.746;2022-08-21T12:40:55;6.07;;;1.80;;
24587;SDS011;12744;52.270;9.746;2022-08-21T12:46:04;3.45;;;1.50;;
24587;SDS011;12744;52.270;9.746;2022-08-21T12:48:41;5.45;;;1.95;;
24587;SDS011;12744;52.270;9.746;2022-08-21T12:51:23;3.60;;;1.88;;
24587;SDS011;12744;52.270;9.746;2022-08-21T12:53:58;4.38;;;2.03;;
24587;SDS011;12744;52.270;9.746;2022-08-21T12:56:31;7.93;;;2.00;;
24587;SDS011;12744;52.270;9.746;2022-08-21T12:59:04;3.13;;;1.83;;
24587;SDS011;12744;52.270;9.746;2022-08-21T13:01:49;2.28;;;1.60;;
24587;SDS011;12744;52.270;9.746;2022-08-21T13:04:36;5.65;;;2.40;;
24587;SDS011;12744;52.270;9.746;2022-08-21T13:07:11;4.32;;;1.70;;
24587;SDS011;12744;52.270;9.746;2022-08-21T13:09:47;3.35;;;1.95;;
24587;SDS011;12744;52.270;9.746;2022-08-21T13:12:25;2.25;;;1.80;;
24587;SDS011;12744;52.270;9.746;2022-08-21T13:14:58;3.75;;;1.70;;
24587;SDS011;12744;52.270;9.746;2022-08-21T13:17:35;4.95;;;2.13;;
24587;SDS011;12744;52.270;9.746;2022-08-21T13:20:19;6.75;;;3.10;;
24587;SDS011;12744;52.270;9.746;2022-08-21T13:22:50;5.00;;;2.10;;
24587;SDS011;12744;52.270;9.746;2022-08-21T13:25:26;2.75;;;1.70;;
24587;SDS011;12744;52.270;9.746;2022-08-21T13:30:40;5.60;;;2.47;;
24587;SDS011;12744;52.270;9.746;2022-08-21T13:33:14;3.45;;;1.85;;
24587;SDS011;12744;52.270;9.746;2022-08-21T13:35:52;3.67;;;2.20;;
24587;SDS011;12744;52.270;9.746;2022-08-21T13:38:34;5.45;;;3.00;;
24587;SDS011;12744;52.270;9.746;2022-08-21T13:41:26;5.22;;;1.80;;
24587;SDS011;12744;52.270;9.746;2022-08-21T13:44:02;6.10;;;2.20;;
24587;SDS011;12744;52.270;9.746;2022-08-21T13:46:35;8.80;;;3.10;;
24587;SDS011;12744;52.270;9.746;2022-08-21T13:49:07;4.35;;;1.80;;
24587;SDS011;12744;52.270;9.746;2022-08-21T13:51:40;3.97;;;2.05;;
24587;SDS011;12744;52.270;9.746;2022-08-21T13:54:16;3.10;;;1.70;;
24587;SDS011;12744;52.270;9.746;2022-08-21T13:56:54;5.13;;;2.53;;
24587;SDS011;12744;52.270;9.746;2022-08-21T13:59:29;3.63;;;1.50;;
24587;SDS011;12744;52.270;9.746;2022-08-21T14:02:13;3.95;;;2.08;;
24587;SDS011;12744;52.270;9.746;2022-08-21T14:05:00;5.88;;;2.00;;
24587;SDS011;12744;52.270;9.746;2022-08-21T14:07:39;4.25;;;2.10;;
24587;SDS011;12744;52.270;9.746;2022-08-21T14:12:54;3.92;;;2.03;;
24587;SDS011;12744;52.270;9.746;2022-08-21T14:15:30;3.63;;;1.60;;
24587;SDS011;12744;52.270;9.746;2022-08-21T14:18:07;3.70;;;1.85;;
24587;SDS011;12744;52.270;9.746;2022-08-21T14:20:40;3.97;;;2.13;;
24587;SDS011;12744;52.270;9.746;2022-08-21T14:23:11;5.35;;;2.25;;
24587;SDS011;12744;52.270;9.746;2022-08-21T14:28:20;4.35;;;1.70;;
24587;SDS011;12744;52.270;9.746;2022-08-21T14:30:57;4.90;;;2.15;;
24587;SDS011;12744;52.270;9.746;2022-08-21T14:33:51;4.40;;;1.60;;
24587;SDS011;12744;52.270;9.746;2022-08-21T14:36:51;4.53;;;1.83;;
24587;SDS011;12744;52.270;9.746;2022-08-21T14:39:23;5.53;;;2.67;;
24587;SDS011;12744;52.270;9.746;2022-08-21T14:42:24;3.53;;;1.67;;
24587;SDS011;12744;52.270;9.746;2022-08-21T14:44:57;4.35;;;2.00;;
24587;SDS011;12744;52.270;9.746;2022-08-21T14:47:31;2.97;;;1.85;;
24587;SDS011;12744;52.270;9.746;2022-08-21T14:50:16;2.88;;;1.85;;
24587;SDS011;12744;52.270;9.746;2022-08-21T14:52:47;1.88;;;1.60;;
24587;SDS011;12744;52.270;9.746;2022-08-21T14:55:19;5.85;;;2.60;;
24587;SDS011;12744;52.270;9.746;2022-08-21T14:57:50;7.57;;;2.53;;
24587;SDS011;12744;52.270;9.746;2022-08-21T15:02:55;4.35;;;2.22;;
24587;SDS011;12744;52.270;9.746;2022-08-21T15:05:26;1.92;;;1.75;;
24587;SDS011;12744;52.270;9.746;2022-08-21T15:07:57;3.83;;;2.30;;
24587;SDS011;12744;52.270;9.746;2022-08-21T15:10:29;6.28;;;2.88;;
24587;SDS011;12744;52.270;9.746;2022-08-21T15:13:03;4.65;;;2.42;;
24587;SDS011;12744;52.270;9.746;2022-08-21T15:15:38;6.80;;;3.20;;
24587;SDS011;12744;52.270;9.746;2022-08-21T15:18:11;3.65;;;2.17;;
24587;SDS011;12744;52.270;9.746;2022-08-21T15:20:42;6.15;;;2.30;;
24587;SDS011;12744;52.270;9.746;2022-08-21T15:23:14;4.63;;;2.40;;
24587;SDS011;12744;52.270;9.746;2022-08-21T15:25:46;3.22;;;2.30;;
24587;SDS011;12744;52.270;9.746;2022-08-21T15:28:19;2.50;;;2.03;;
24587;SDS011;12744;52.270;9.746;2022-08-21T15:30:52;3.13;;;2.40;;
24587;SDS011;12744;52.270;9.746;2022-08-21T15:33:23;2.53;;;2.25;;
24587;SDS011;12744;52.270;9.746;2022-08-21T15:35:54;3.70;;;2.50;;
24587;SDS011;12744;52.270;9.746;2022-08-21T15:38:25;4.28;;;2.38;;
24587;SDS011;12744;52.270;9.746;2022-08-21T15:40:56;3.70;;;2.30;;
24587;SDS011;12744;52.270;9.746;2022-08-21T15:43:28;4.20;;;2.47;;
24587;SDS011;12744;52.270;9.746;2022-08-21T15:46:03;5.60;;;2.13;;
24587;SDS011;12744;52.270;9.746;2022-08-21T15:48:36;4.85;;;2.30;;
24587;SDS011;12744;52.270;9.746;2022-08-21T15:51:08;4.63;;;2.53;;
24587;SDS011;12744;52.270;9.746;2022-08-21T15:53:40;4.38;;;2.22;;
24587;SDS011;12744;52.270;9.746;2022-08-21T15:56:23;5.30;;;2.15;;
24587;SDS011;12744;52.270;9.746;2022-08-21T15:59:00;8.60;;;2.30;;
24587;SDS011;12744;52.270;9.746;2022-08-21T16:01:34;4.97;;;2.38;;
24587;SDS011;12744;52.270;9.746;2022-08-21T16:04:06;7.22;;;2.25;;
24587;SDS011;12744;52.270;9.746;2022-08-21T16:06:38;6.32;;;2.40;;
24587;SDS011;12744;52.270;9.746;2022-08-21T16:09:09;3.28;;;2.20;;
24587;SDS011;12744;52.270;9.746;2022-08-21T16:12:10;4.32;;;2.00;;
24587;SDS011;12744;52.270;9.746;2022-08-21T16:15:04;4.65;;;2.47;;
24587;SDS011;12744;52.270;9.746;2022-08-21T16:17:45;7.25;;;2.10;;
24587;SDS011;12744;52.270;9.746;2022-08-21T16:20:25;3.05;;;1.88;;
24587;SDS011;12744;52.270;9.746;2022-08-21T16:22:58;6.78;;;2.47;;
24587;SDS011;12744;52.270;9.746;2022-08-21T16:25:29;4.40;;;2.45;;
24587;SDS011;12744;52.270;9.746;2022-08-21T16:28:00;4.05;;;2.53;;
24587;SDS011;12744;52.270;9.746;2022-08-21T16:30:35;4.03;;;2.23;;
24587;SDS011;12744;52.270;9.746;2022-08-21T16:33:11;4.18;;;2.40;;
24587;SDS011;12744;52.270;9.746;2022-08-21T16:35:51;8.10;;;2.40;;
24587;SDS011;12744;52.270;9.746;2022-08-21T16:38:22;4.57;;;2.42;;
24587;SDS011;12744;52.270;9.746;2022-08-21T16:40:56;2.83;;;2.00;;
24587;SDS011;12744;52.270;9.746;2022-08-21T16:43:29;3.70;;;2.40;;
24587;SDS011;12744;52.270;9.746;2022-08-21T16:46:00;7.60;;;2.90;;
24587;SDS011;12744;52.270;9.746;2022-08-21T16:48:32;4.78;;;2.33;;
24587;SDS011;12744;52.270;9.746;2022-08-21T16:51:03;6.65;;;2.53;;
24587;SDS011;12744;52.270;9.746;2022-08-21T16:53:34;5.00;;;2.50;;
24587;SDS011;12744;52.270;9.746;2022-08-21T16:56:06;7.07;;;2.30;;
24587;SDS011;12744;52.270;9.746;2022-08-21T16:58:39;4.10;;;2.43;;
24587;SDS011;12744;52.270;9.746;2022-08-21T17:01:13;3.75;;;2.70;;